createdAt,value
2023-10-22T00:02:01.853Z,99774.44
2023-10-22T00:07:07.031Z,99761.28
2023-10-22T00:12:11.988Z,99763.34
2023-10-22T00:17:15.159Z,99769.09
2023-10-22T00:22:20.437Z,99776.44
2023-10-22T00:27:23.992Z,99763.84
2023-10-22T00:32:27.425Z,99773.63
2023-10-22T00:37:32.794Z,99786.91
2023-10-22T00:42:36.461Z,99792.84
2023-10-22T00:47:40.200Z,99779.50
2023-10-22T00:52:45.131Z,99772.13
2023-10-22T00:57:49.542Z,99757.50
2023-10-22T01:02:53.305Z,99749.91
2023-10-22T01:07:59.187Z,99770.69
2023-10-22T01:13:02.677Z,99756.22
2023-10-22T01:18:06.604Z,99773.16
2023-10-22T01:23:13.518Z,99803.34
2023-10-22T01:28:17.143Z,99803.25
2023-10-22T01:33:20.797Z,99781.78
2023-10-22T01:38:25.844Z,99756.84
2023-10-22T01:43:29.584Z,99737.31
2023-10-22T01:48:33.419Z,99712.25
2023-10-22T01:53:38.578Z,99727.38
2023-10-22T01:58:41.974Z,99693.53
2023-10-22T02:03:48.050Z,99670.50
2023-10-22T02:08:53.214Z,99675.09
2023-10-22T02:13:57.058Z,99692.25
2023-10-22T02:19:00.652Z,99679.03
2023-10-22T02:24:25.420Z,99680.84
2023-10-22T02:29:28.740Z,99698.47
2023-10-22T02:34:32.258Z,99696.41
2023-10-22T02:39:37.130Z,99684.81
2023-10-22T02:44:41.234Z,99684.97
2023-10-22T02:49:44.884Z,99680.13
2023-10-22T02:54:50.417Z,99667.56
2023-10-22T02:59:53.978Z,99662.06
2023-10-22T03:04:58.383Z,99663.75
2023-10-22T03:10:04.667Z,99658.81
2023-10-22T03:15:09.836Z,99640.50
2023-10-22T03:20:13.990Z,99636.31
2023-10-22T03:25:20.028Z,99666.66
2023-10-22T03:30:23.706Z,99664.19
2023-10-22T03:35:28.430Z,99645.81
2023-10-22T03:40:35.887Z,99665.28
2023-10-22T03:45:39.584Z,99625.59
2023-10-22T03:50:46.114Z,99647.31
2023-10-22T03:55:51.729Z,99648.59
2023-10-22T04:00:57.240Z,99631.66
2023-10-22T04:06:00.895Z,99636.28
2023-10-22T04:11:06.206Z,99622.56
2023-10-22T04:16:16.815Z,99631.47
2023-10-22T04:21:20.482Z,99652.16
2023-10-22T04:26:25.552Z,99653.19
2023-10-22T04:31:29.196Z,99640.44
2023-10-22T04:36:33.668Z,99642.03
2023-10-22T04:41:38.810Z,99645.41
2023-10-22T04:46:42.444Z,99651.75
2023-10-22T04:51:46.443Z,99658.75
2023-10-22T04:56:51.343Z,99661.09
2023-10-22T05:01:55.811Z,99632.66
2023-10-22T05:06:59.481Z,99628.41
2023-10-22T05:12:04.586Z,99622.72
2023-10-22T05:17:08.322Z,99627.81
2023-10-22T05:22:11.817Z,99640.47
2023-10-22T05:27:17.337Z,99663.00
2023-10-22T05:32:20.979Z,99678.81
2023-10-22T05:37:25.263Z,99684.72
2023-10-22T05:42:30.284Z,99701.53
2023-10-22T05:47:34.238Z,99701.19
2023-10-22T05:52:37.701Z,99694.06
2023-10-22T05:57:42.496Z,99690.44
2023-10-22T06:02:45.994Z,99682.19
2023-10-22T06:07:50.008Z,99690.13
2023-10-22T06:12:55.221Z,99710.38
2023-10-22T06:17:58.990Z,99712.47
2023-10-22T06:23:02.748Z,99713.94
2023-10-22T06:28:08.005Z,99717.94
2023-10-22T06:33:11.759Z,99709.56
2023-10-22T06:38:15.367Z,99693.13
2023-10-22T06:43:20.543Z,99692.19
2023-10-22T06:48:24.482Z,99703.88
2023-10-22T06:53:27.938Z,99673.84
2023-10-22T06:58:33.621Z,99689.13
2023-10-22T07:03:37.301Z,99691.84
2023-10-22T07:08:41.514Z,99686.56
2023-10-22T07:13:46.712Z,99664.25
2023-10-22T07:18:50.561Z,99677.31
2023-10-22T07:23:55.742Z,99671.78
2023-10-22T07:29:01.152Z,99666.00
2023-10-22T07:34:04.755Z,99643.69
2023-10-22T07:39:09.208Z,99629.53
2023-10-22T07:44:14.925Z,99637.97
2023-10-22T07:49:18.499Z,99625.91
2023-10-22T07:54:22.130Z,99604.66
2023-10-22T07:59:27.353Z,99604.47
2023-10-22T08:04:31.015Z,99599.94
2023-10-22T08:09:34.703Z,99600.09
2023-10-22T08:14:39.669Z,99596.94
2023-10-22T08:19:43.169Z,99584.03
2023-10-22T08:24:49.845Z,99577.91
2023-10-22T08:29:56.329Z,99562.16
2023-10-22T08:35:00.301Z,99549.31
2023-10-22T08:40:07.345Z,99549.09
2023-10-22T08:45:12.723Z,99545.78
2023-10-22T08:50:19.664Z,99542.72
2023-10-22T08:55:24.340Z,99534.53
2023-10-22T09:00:32.413Z,99517.97
2023-10-22T09:05:36.156Z,99517.78
2023-10-22T09:10:40.051Z,99513.78
2023-10-22T09:15:45.935Z,99521.88
2023-10-22T09:20:50.377Z,99502.63
2023-10-22T09:25:55.545Z,99502.31
2023-10-22T09:31:02.084Z,99491.41
2023-10-22T09:36:07.853Z,99492.00
2023-10-22T09:41:13.717Z,99496.41
2023-10-22T09:46:20.530Z,99471.59
2023-10-22T09:51:25.656Z,99453.72
2023-10-22T09:56:31.694Z,99453.69
2023-10-22T10:01:37.741Z,99449.94
2023-10-22T10:06:42.285Z,99445.97
2023-10-22T10:11:45.981Z,99437.41
2023-10-22T10:17:02.427Z,99439.59
2023-10-22T10:22:06.499Z,99446.50
2023-10-22T10:27:26.988Z,99442.72
2023-10-22T10:32:31.947Z,99436.34
2023-10-22T10:37:35.907Z,99442.75
2023-10-22T10:42:51.428Z,99420.38
2023-10-22T10:47:56.408Z,99420.44
2023-10-22T10:53:04.334Z,99419.16
2023-10-22T10:58:07.775Z,99407.03
2023-10-22T11:03:23.450Z,99408.91
2023-10-22T11:08:28.979Z,99412.63
2023-10-22T11:13:33.581Z,99406.31
2023-10-22T11:18:54.751Z,99396.78
2023-10-22T11:23:58.584Z,99393.91
2023-10-22T11:29:02.436Z,99390.38
2023-10-22T11:34:18.222Z,99379.97
2023-10-22T11:39:38.385Z,99372.63
2023-10-22T11:44:48.012Z,99362.78
2023-10-22T11:49:53.112Z,99351.56
2023-10-22T11:54:57.258Z,99348.56
2023-10-22T12:00:01.173Z,99349.03
2023-10-22T12:05:06.709Z,99332.09
2023-10-22T12:10:11.562Z,99333.47
2023-10-22T12:15:15.386Z,99326.31
2023-10-22T12:20:21.360Z,99310.81
2023-10-22T12:25:25.128Z,99307.66
2023-10-22T12:30:29.180Z,99297.22
2023-10-22T12:35:34.197Z,99281.75
2023-10-22T12:40:37.945Z,99271.56
2023-10-22T12:45:42.628Z,99265.34
2023-10-22T12:50:51.043Z,99260.06
2023-10-22T12:55:55.509Z,99240.22
2023-10-22T13:01:01.153Z,99230.78
2023-10-22T13:06:07.424Z,99238.91
2023-10-22T13:11:11.350Z,99233.75
2023-10-22T13:16:15.069Z,99222.03
2023-10-22T13:21:20.216Z,99217.69
2023-10-22T13:26:24.543Z,99222.72
2023-10-22T13:31:28.143Z,99208.94
2023-10-22T13:36:33.265Z,99216.25
2023-10-22T13:41:36.988Z,99197.88
2023-10-22T13:46:41.270Z,99190.13
2023-10-22T13:51:47.442Z,99196.94
2023-10-22T13:56:52.169Z,99192.56
2023-10-22T14:01:55.796Z,99176.94
2023-10-22T14:07:00.873Z,99183.25
2023-10-22T14:12:04.576Z,99182.09
2023-10-22T14:17:08.470Z,99189.16
2023-10-22T14:22:13.318Z,99165.16
2023-10-22T14:27:16.426Z,99162.25
2023-10-22T14:32:20.419Z,99154.59
2023-10-22T14:37:25.706Z,99141.69
2023-10-22T14:42:29.504Z,99141.06
2023-10-22T14:47:33.075Z,99136.94
2023-10-22T14:52:38.154Z,99135.34
2023-10-22T14:57:41.874Z,99132.56
2023-10-22T15:02:48.080Z,99131.47
2023-10-22T15:07:53.385Z,99121.91
2023-10-22T15:12:56.950Z,99114.41
2023-10-22T15:18:00.638Z,99097.09
2023-10-22T15:23:05.771Z,99079.09
2023-10-22T15:28:09.330Z,99090.09
2023-10-22T15:33:13.140Z,99085.47
2023-10-22T15:38:18.681Z,99083.81
2023-10-22T15:43:22.367Z,99079.94
2023-10-22T15:48:27.676Z,99073.97
2023-10-22T15:53:32.748Z,99066.53
2023-10-22T15:58:36.211Z,99060.31
2023-10-22T16:03:40.613Z,99056.84
2023-10-22T16:08:45.941Z,99044.03
2023-10-22T16:13:49.552Z,99047.75
2023-10-22T16:18:53.596Z,99044.94
2023-10-22T16:23:58.443Z,99038.06
2023-10-22T16:29:01.958Z,99032.81
2023-10-22T16:34:05.635Z,99020.06
2023-10-22T16:39:10.954Z,99004.09
2023-10-22T16:44:14.616Z,99004.97
2023-10-22T16:49:18.211Z,99003.13
2023-10-22T16:54:24.412Z,99007.41
2023-10-22T16:59:28.184Z,98999.59
2023-10-22T17:04:31.857Z,98996.06
2023-10-22T17:09:37.060Z,98980.00
2023-10-22T17:14:52.048Z,98978.16
2023-10-22T17:19:57.835Z,98974.00
2023-10-22T17:25:03.071Z,98962.81
2023-10-22T17:30:09.175Z,98938.53
2023-10-22T17:35:12.962Z,98944.56
2023-10-22T17:40:18.103Z,98943.72
2023-10-22T17:45:22.193Z,98938.72
2023-10-22T17:50:25.816Z,98916.28
2023-10-22T17:55:30.842Z,98921.59
2023-10-22T18:00:34.567Z,98923.44
2023-10-22T18:05:38.664Z,98917.38
2023-10-22T18:10:53.723Z,98910.56
2023-10-22T18:15:57.408Z,98901.91
2023-10-22T18:21:05.068Z,98898.34
2023-10-22T18:26:11.709Z,98887.34
2023-10-22T18:31:15.386Z,98861.66
2023-10-22T18:36:19.160Z,98849.50
2023-10-22T18:41:24.518Z,98861.66
2023-10-22T18:46:31.570Z,98853.16
2023-10-22T18:51:36.007Z,98848.91
2023-10-22T18:56:41.805Z,98844.50
2023-10-22T19:01:47.315Z,98841.06
2023-10-22T19:06:50.749Z,98844.59
2023-10-22T19:11:55.571Z,98835.25
2023-10-22T19:16:59.533Z,98838.69
2023-10-22T19:22:03.179Z,98840.50
2023-10-22T19:27:08.221Z,98821.50
2023-10-22T19:32:11.822Z,98795.66
2023-10-22T19:37:15.326Z,98797.47
2023-10-22T19:42:20.793Z,98787.81
2023-10-22T19:47:24.303Z,98774.13
2023-10-22T19:52:40.541Z,98772.50
2023-10-22T19:57:46.966Z,98763.22
2023-10-22T20:02:50.569Z,98736.47
2023-10-22T20:07:54.050Z,98740.75
2023-10-22T20:12:59.160Z,98748.56
2023-10-22T20:18:10.790Z,98744.34
2023-10-22T20:23:14.353Z,98741.81
2023-10-22T20:28:19.194Z,98709.94
2023-10-22T20:33:23.467Z,98698.91
2023-10-22T20:38:27.209Z,98681.03
2023-10-22T20:43:32.042Z,98669.22
2023-10-22T20:48:37.109Z,98670.97
2023-10-22T20:53:42.217Z,98659.56
2023-10-22T20:58:48.609Z,98639.00
2023-10-22T21:03:52.553Z,98660.53
2023-10-22T21:08:56.210Z,98669.84
2023-10-22T21:14:01.243Z,98664.84
2023-10-22T21:19:05.011Z,98646.84
2023-10-22T21:24:09.822Z,98651.03
2023-10-22T21:29:14.963Z,98664.69
2023-10-22T21:34:18.466Z,98678.47
2023-10-22T21:39:22.717Z,98688.88
2023-10-22T21:44:27.530Z,98702.72
2023-10-22T21:49:31.227Z,98707.91
2023-10-22T21:54:34.977Z,98701.91
2023-10-22T21:59:39.982Z,98684.69
2023-10-22T22:04:43.208Z,98670.91
2023-10-22T22:09:46.550Z,98657.91
2023-10-22T22:14:51.476Z,98660.50
2023-10-22T22:19:55.470Z,98661.47
2023-10-22T22:24:58.916Z,98662.31
2023-10-22T22:30:03.947Z,98639.19
2023-10-22T22:35:09.869Z,98626.06
2023-10-22T22:40:13.865Z,98608.00
2023-10-22T22:45:19.099Z,98587.41
2023-10-22T22:50:22.832Z,98548.00
2023-10-22T22:55:26.431Z,98535.97
2023-10-22T23:00:31.685Z,98533.44
2023-10-22T23:05:35.295Z,98512.88
2023-10-22T23:10:39.226Z,98490.59
2023-10-22T23:15:44.997Z,98472.56
2023-10-22T23:20:48.548Z,98444.19
2023-10-22T23:25:52.606Z,98423.56
2023-10-22T23:30:57.873Z,98416.72
2023-10-22T23:36:08.676Z,98446.78
2023-10-22T23:41:12.059Z,98437.38
2023-10-22T23:46:17.210Z,98439.97
2023-10-22T23:51:21.574Z,98402.13
2023-10-22T23:56:25.300Z,98397.84
